createdAt,value
2017-10-07T00:00:38.984Z,101181.77
2017-10-07T00:06:25.803Z,101188.52
2017-10-07T00:12:09.462Z,101193.58
2017-10-07T00:17:52.387Z,101187.09
2017-10-07T00:23:37.259Z,101189.30
2017-10-07T00:29:19.739Z,101197.02
2017-10-07T00:35:06.434Z,101170.87
2017-10-07T00:40:50.763Z,101172.03
2017-10-07T00:46:38.332Z,101178.84
2017-10-07T00:52:22.247Z,101169.93
2017-10-07T00:58:06.871Z,101162.08
2017-10-07T01:03:53.846Z,101162.91
2017-10-07T01:09:36.106Z,101159.72
2017-10-07T01:15:25.317Z,101141.58
2017-10-07T01:21:05.790Z,101146.50
2017-10-07T01:26:51.206Z,101145.47
2017-10-07T01:32:40.376Z,101144.79
2017-10-07T01:38:24.417Z,101153.50
2017-10-07T01:44:11.210Z,101139.94
2017-10-07T01:49:54.591Z,101137.14
2017-10-07T01:55:37.243Z,101135.92
2017-10-07T02:01:26.904Z,101126.55
2017-10-07T02:07:07.558Z,101127.52
2017-10-07T02:12:54.458Z,101126.34
2017-10-07T02:18:37.531Z,101130.47
2017-10-07T02:24:19.467Z,101129.14
2017-10-07T02:30:06.588Z,101134.84
2017-10-07T02:35:51.446Z,101127.27
2017-10-07T02:41:36.164Z,101126.80
2017-10-07T02:47:22.747Z,101124.63
2017-10-07T02:53:09.538Z,101124.02
2017-10-07T02:58:52.376Z,101130.77
2017-10-07T03:04:37.186Z,101114.84
2017-10-07T03:10:20.205Z,101124.23
2017-10-07T03:16:06.776Z,101124.59
2017-10-07T03:21:50.159Z,101127.91
2017-10-07T03:27:36.825Z,101123.14
2017-10-07T03:33:25.777Z,101124.16
2017-10-07T03:39:08.666Z,101119.47
2017-10-07T03:44:51.343Z,101112.29
2017-10-07T03:50:38.032Z,101118.59
2017-10-07T03:56:22.787Z,101111.66
2017-10-07T04:02:12.317Z,101116.29
2017-10-07T04:07:55.891Z,101115.09
2017-10-07T04:13:38.655Z,101114.89
2017-10-07T04:19:21.712Z,101113.56
2017-10-07T04:25:08.535Z,101107.16
2017-10-07T04:30:53.479Z,101104.95
2017-10-07T04:36:36.466Z,101105.22
2017-10-07T04:42:21.270Z,101103.91
2017-10-07T04:48:06.379Z,101091.88
2017-10-07T04:53:55.670Z,101091.83
2017-10-07T04:59:38.957Z,101086.52
2017-10-07T05:05:23.554Z,101080.35
2017-10-07T05:11:07.318Z,101082.78
2017-10-07T05:16:56.365Z,101068.54
2017-10-07T05:22:39.209Z,101072.08
2017-10-07T05:28:22.082Z,101069.98
2017-10-07T05:34:08.827Z,101065.88
2017-10-07T05:39:53.446Z,101058.84
2017-10-07T05:45:38.253Z,101065.70
2017-10-07T05:51:23.295Z,101064.76
2017-10-07T05:57:07.287Z,101060.92
2017-10-07T06:02:56.085Z,101056.09
2017-10-07T06:08:39.378Z,101043.73
2017-10-07T06:14:22.142Z,101037.89
2017-10-07T06:20:06.792Z,101040.14
2017-10-07T06:25:55.590Z,101034.36
2017-10-07T06:31:39.202Z,101024.16
2017-10-07T06:37:22.752Z,101016.58
2017-10-07T06:43:07.713Z,101014.45
2017-10-07T06:48:56.769Z,101005.50
2017-10-07T06:54:39.419Z,101001.23
2017-10-07T07:00:22.435Z,100989.84
2017-10-07T07:06:10.933Z,100987.02
2017-10-07T07:11:51.427Z,100976.07
2017-10-07T07:17:36.172Z,100970.41
2017-10-07T07:23:25.349Z,100967.41
2017-10-07T07:29:08.614Z,100969.45
2017-10-07T07:34:51.508Z,100965.23
2017-10-07T07:40:40.645Z,100962.41
2017-10-07T07:46:23.190Z,100958.03
2017-10-07T07:52:10.286Z,100956.89
2017-10-07T07:57:56.947Z,100943.66
2017-10-07T08:03:40.031Z,100933.30
2017-10-07T08:09:23.496Z,100927.16
2017-10-07T08:15:06.486Z,100918.03
2017-10-07T08:20:55.989Z,100920.34
2017-10-07T08:26:36.086Z,100902.09
2017-10-07T08:32:23.336Z,100902.50
2017-10-07T08:38:08.007Z,100890.53
2017-10-07T08:43:57.345Z,100882.38
2017-10-07T08:49:40.639Z,100873.17
2017-10-07T08:55:23.929Z,100861.43
2017-10-07T09:01:06.469Z,100848.87
2017-10-07T09:06:55.845Z,100841.57
2017-10-07T09:12:39.375Z,100825.70
2017-10-07T09:18:23.125Z,100816.91
2017-10-07T09:24:12.284Z,100805.05
2017-10-07T09:29:54.943Z,100801.48
2017-10-07T09:35:39.455Z,100800.21
2017-10-07T09:41:22.340Z,100781.59
2017-10-07T09:47:11.549Z,100760.37
2017-10-07T09:52:54.548Z,100757.78
2017-10-07T09:58:39.139Z,100736.41
2017-10-07T10:04:21.651Z,100732.89
2017-10-07T10:10:10.776Z,100735.07
2017-10-07T10:15:55.951Z,100731.52
2017-10-07T10:21:38.611Z,100724.49
2017-10-07T10:27:21.399Z,100723.29
2017-10-07T10:33:10.880Z,100723.00
2017-10-07T10:38:54.206Z,100711.14
2017-10-07T10:44:39.295Z,100705.46
2017-10-07T10:50:22.031Z,100697.24
2017-10-07T10:56:08.679Z,100688.17
2017-10-07T11:01:55.287Z,100671.23
2017-10-07T11:07:39.415Z,100657.97
2017-10-07T11:13:24.024Z,100641.13
2017-10-07T11:19:08.335Z,100619.30
2017-10-07T11:24:54.825Z,100606.94
2017-10-07T11:30:38.567Z,100599.70
2017-10-07T11:36:25.463Z,100582.05
2017-10-07T11:42:08.080Z,100566.50
2017-10-07T11:47:52.975Z,100556.95
2017-10-07T11:53:41.902Z,100547.39
2017-10-07T11:59:25.427Z,100526.32
2017-10-07T12:05:08.587Z,100510.80
2017-10-07T12:10:51.575Z,100511.17
2017-10-07T12:16:38.143Z,100495.98
2017-10-07T12:22:25.015Z,100481.75
2017-10-07T12:28:07.742Z,100465.75
2017-10-07T12:33:56.969Z,100450.63
2017-10-07T12:39:37.498Z,100453.81
2017-10-07T12:45:24.758Z,100435.32
2017-10-07T12:51:08.312Z,100417.09
2017-10-07T12:56:52.614Z,100417.78
2017-10-07T13:02:41.213Z,100400.48
2017-10-07T13:08:26.470Z,100394.03
2017-10-07T13:14:11.531Z,100374.25
2017-10-07T13:19:58.828Z,100361.30
2017-10-07T13:25:38.731Z,100344.96
2017-10-07T13:31:26.167Z,100336.39
2017-10-07T13:37:12.490Z,100321.81
2017-10-07T13:42:55.595Z,100313.98
2017-10-07T13:48:38.608Z,100306.08
2017-10-07T13:54:25.542Z,100292.48
2017-10-07T14:00:11.222Z,100296.80
2017-10-07T14:05:53.818Z,100284.84
2017-10-07T14:11:40.219Z,100271.52
2017-10-07T14:17:22.523Z,100266.44
2017-10-07T14:23:11.833Z,100255.50
2017-10-07T14:28:54.878Z,100240.18
2017-10-07T14:34:37.667Z,100239.88
2017-10-07T14:40:26.901Z,100225.11
2017-10-07T14:46:14.405Z,100226.47
2017-10-07T14:51:54.677Z,100221.83
2017-10-07T14:57:40.080Z,100208.41
2017-10-07T15:03:22.960Z,100196.97
2017-10-07T15:09:12.337Z,100197.30
2017-10-07T15:14:56.374Z,100181.02
2017-10-07T15:20:38.943Z,100165.84
2017-10-07T15:26:28.002Z,100169.80
2017-10-07T15:32:10.918Z,100161.34
2017-10-07T15:37:54.426Z,100161.53
2017-10-07T15:43:37.203Z,100152.10
2017-10-07T15:49:23.970Z,100154.66
2017-10-07T15:55:11.118Z,100148.31
2017-10-07T16:00:53.991Z,100136.64
2017-10-07T16:06:37.154Z,100130.80
2017-10-07T16:12:21.604Z,100130.47
2017-10-07T16:18:08.511Z,100119.14
2017-10-07T16:23:55.983Z,100125.56
2017-10-07T16:29:42.798Z,100115.25
2017-10-07T16:35:25.027Z,100098.64
2017-10-07T16:41:09.239Z,100094.25
2017-10-07T16:46:58.793Z,100084.45
2017-10-07T16:52:38.835Z,100084.08
2017-10-07T16:58:25.630Z,100076.35
2017-10-07T17:04:08.343Z,100079.27
2017-10-07T17:09:55.022Z,100069.07
2017-10-07T17:15:39.418Z,100057.89
2017-10-07T17:21:24.291Z,100052.60
2017-10-07T17:27:11.239Z,100037.38
2017-10-07T17:32:53.915Z,100040.23
2017-10-07T17:38:38.661Z,100038.64
2017-10-07T17:44:25.299Z,100034.34
2017-10-07T17:50:07.934Z,100030.48
2017-10-07T17:55:57.341Z,100032.19
2017-10-07T18:01:40.663Z,100025.81
2017-10-07T18:07:23.618Z,100030.06
2017-10-07T18:13:08.235Z,100029.54
2017-10-07T18:18:57.544Z,100020.44
2017-10-07T18:24:40.796Z,100022.63
2017-10-07T18:30:24.050Z,100014.86
2017-10-07T18:36:13.356Z,100023.03
2017-10-07T18:41:56.567Z,100024.73
2017-10-07T18:47:39.646Z,100029.05
2017-10-07T18:53:25.418Z,100023.27
2017-10-07T18:59:12.272Z,100026.40
2017-10-07T19:04:55.748Z,100027.78
2017-10-07T19:10:40.611Z,100022.23
2017-10-07T19:16:25.595Z,100017.48
2017-10-07T19:22:10.414Z,100016.14
2017-10-07T19:27:59.309Z,100012.70
2017-10-07T19:33:39.932Z,100000.80
2017-10-07T19:39:27.335Z,100000.01
2017-10-07T19:45:10.058Z,99989.92
2017-10-07T19:50:56.662Z,100001.98
2017-10-07T19:56:39.592Z,100004.40
2017-10-07T20:02:24.391Z,99998.48
2017-10-07T20:08:13.589Z,99990.16
2017-10-07T20:14:02.489Z,99998.16
2017-10-07T20:19:39.291Z,99985.11
2017-10-07T20:25:22.327Z,99979.37
2017-10-07T20:31:08.886Z,99983.67
2017-10-07T20:36:55.295Z,99979.23
2017-10-07T20:42:38.066Z,99980.84
2017-10-07T20:48:25.154Z,99979.34
2017-10-07T20:54:14.094Z,99988.72
2017-10-07T20:59:57.462Z,99988.34
2017-10-07T21:05:40.307Z,99983.91
2017-10-07T21:11:23.067Z,99992.30
2017-10-07T21:17:07.755Z,99989.91
2017-10-07T21:22:56.624Z,99989.14
2017-10-07T21:28:40.183Z,100006.11
2017-10-07T21:34:23.318Z,100014.27
2017-10-07T21:40:07.870Z,100008.04
2017-10-07T21:45:54.851Z,100014.22
2017-10-07T21:51:38.787Z,100010.80
2017-10-07T21:57:25.488Z,100016.79
2017-10-07T22:03:08.598Z,100008.50
2017-10-07T22:08:55.439Z,100015.97
2017-10-07T22:14:38.196Z,100006.83
2017-10-07T22:20:25.043Z,100004.33
2017-10-07T22:26:14.098Z,100007.55
2017-10-07T22:31:57.405Z,100011.23
2017-10-07T22:37:40.303Z,100024.27
2017-10-07T22:43:25.302Z,100017.66
2017-10-07T22:49:08.679Z,100021.04
2017-10-07T22:54:55.018Z,100024.60
2017-10-07T23:00:38.551Z,100023.84
2017-10-07T23:06:25.375Z,100031.36
2017-10-07T23:12:08.011Z,100033.11
2017-10-07T23:17:54.954Z,100040.13
2017-10-07T23:23:41.466Z,100032.25
2017-10-07T23:29:24.651Z,100034.81
2017-10-07T23:35:09.517Z,100031.45
2017-10-07T23:40:58.399Z,100035.98
2017-10-07T23:46:38.490Z,100055.38
2017-10-07T23:52:23.815Z,100056.76
2017-10-07T23:58:10.284Z,100062.33
